createdAt,value
2023-04-09T04:02:16.829Z,84.41
2023-04-09T04:06:24.051Z,84.78
2023-04-09T04:10:42.258Z,85.31
2023-04-09T04:14:46.917Z,85.96
2023-04-09T04:19:00.973Z,86.51
2023-04-09T04:23:06.553Z,85.88
2023-04-09T04:27:11.437Z,85.08
2023-04-09T04:31:14.381Z,84.88
2023-04-09T04:35:18.694Z,84.65
2023-04-09T04:39:22.217Z,85.17
2023-04-09T04:43:30.477Z,85.54
2023-04-09T04:47:35.213Z,85.80
2023-04-09T04:51:41.089Z,85.60
2023-04-09T04:55:47.644Z,85.90
2023-04-09T04:59:53.117Z,85.93
2023-04-09T05:03:56.067Z,84.94
2023-04-09T05:08:05.462Z,84.34
2023-04-09T05:12:08.221Z,83.79
2023-04-09T05:16:17.259Z,83.43
2023-04-09T05:20:21.366Z,82.63
2023-04-09T05:24:34.188Z,81.99
2023-04-09T05:28:37.001Z,81.68
2023-04-09T05:32:48.619Z,80.57
2023-04-09T05:36:52.322Z,79.70
2023-04-09T05:40:59.180Z,79.37
2023-04-09T05:45:02.106Z,78.93
2023-04-09T05:49:05.056Z,78.86
2023-04-09T05:53:09.216Z,79.20
2023-04-09T05:57:17.386Z,79.45
2023-04-09T06:01:27.116Z,78.74
2023-04-09T06:05:29.870Z,79.58
2023-04-09T06:09:32.411Z,80.49
2023-04-09T06:13:36.377Z,80.16
2023-04-09T06:17:38.921Z,78.45
2023-04-09T06:21:42.345Z,77.42
2023-04-09T06:25:44.880Z,77.32
2023-04-09T06:29:48.735Z,76.21
2023-04-09T06:33:51.652Z,75.81
2023-04-09T06:37:54.440Z,75.89
2023-04-09T06:41:56.936Z,74.77
2023-04-09T06:46:17.250Z,74.62
2023-04-09T06:50:19.835Z,75.16
2023-04-09T06:54:22.505Z,75.45
2023-04-09T06:58:25.052Z,74.65
2023-04-09T07:02:29.149Z,73.68
2023-04-09T07:06:31.843Z,74.01
2023-04-09T07:10:34.409Z,73.28
2023-04-09T07:14:36.957Z,72.30
2023-04-09T07:18:40.981Z,71.66
2023-04-09T07:22:43.523Z,70.89
2023-04-09T07:26:46.058Z,70.53
2023-04-09T07:30:48.594Z,70.00
2023-04-09T07:34:53.727Z,69.56
2023-04-09T07:38:56.276Z,68.48
2023-04-09T07:42:59.072Z,68.18
2023-04-09T07:47:01.840Z,67.99
2023-04-09T07:51:06.158Z,68.51
2023-04-09T07:55:09.095Z,68.92
2023-04-09T07:59:11.858Z,67.93
2023-04-09T08:03:14.653Z,66.85
2023-04-09T08:07:18.554Z,65.86
2023-04-09T08:11:25.162Z,65.51
2023-04-09T08:15:27.791Z,65.72
2023-04-09T08:19:30.433Z,65.63
2023-04-09T08:23:34.249Z,66.67
2023-04-09T08:27:37.054Z,66.42
2023-04-09T08:31:39.657Z,66.55
2023-04-09T08:35:42.556Z,65.40
2023-04-09T08:39:46.411Z,66.30
2023-04-09T08:43:57.610Z,66.22
2023-04-09T08:48:03.715Z,66.29
2023-04-09T08:52:06.485Z,65.76
2023-04-09T08:56:10.336Z,66.36
2023-04-09T09:00:13.980Z,66.43
2023-04-09T09:04:16.695Z,67.05
2023-04-09T09:08:24.591Z,67.32
2023-04-09T09:12:33.918Z,68.16
2023-04-09T09:16:40.272Z,68.50
2023-04-09T09:20:43.208Z,68.00
2023-04-09T09:24:50.701Z,67.12
2023-04-09T09:28:55.619Z,66.84
2023-04-09T09:33:07.042Z,66.08
2023-04-09T09:37:27.696Z,65.34
2023-04-09T09:41:30.904Z,64.12
2023-04-09T09:45:35.084Z,63.26
2023-04-09T09:49:37.653Z,61.34
2023-04-09T09:53:42.104Z,60.18
2023-04-09T09:57:45.967Z,58.29
2023-04-09T10:01:56.935Z,57.21
2023-04-09T10:06:02.438Z,55.50
2023-04-09T10:10:08.311Z,54.88
2023-04-09T10:14:11.017Z,53.43
2023-04-09T10:18:17.260Z,52.86
2023-04-09T10:22:24.315Z,51.97
2023-04-09T10:26:30.650Z,50.42
2023-04-09T10:30:33.502Z,49.22
2023-04-09T10:34:39.756Z,48.87
2023-04-09T10:38:46.759Z,49.36
2023-04-09T10:42:50.680Z,49.24
2023-04-09T10:46:54.906Z,50.72
2023-04-09T10:50:58.924Z,50.56
2023-04-09T10:55:01.449Z,49.18
2023-04-09T10:59:04.321Z,47.88
2023-04-09T11:03:24.400Z,47.20
2023-04-09T11:07:29.749Z,48.19
2023-04-09T11:11:33.659Z,48.35
2023-04-09T11:15:37.491Z,49.24
2023-04-09T11:19:40.175Z,47.08
2023-04-09T11:23:52.785Z,48.04
2023-04-09T11:27:55.586Z,48.08
2023-04-09T11:31:58.103Z,47.53
2023-04-09T11:36:01.707Z,47.95
2023-04-09T11:40:06.616Z,47.40
2023-04-09T11:44:09.294Z,47.29
2023-04-09T11:48:12.879Z,48.01
2023-04-09T11:52:16.882Z,47.40
2023-04-09T11:56:21.252Z,47.60
2023-04-09T12:00:24.956Z,48.39
2023-04-09T12:04:27.775Z,47.92
2023-04-09T12:08:31.147Z,47.64
2023-04-09T12:12:42.470Z,46.98
2023-04-09T12:16:45.644Z,46.10
2023-04-09T12:20:49.601Z,46.92
2023-04-09T12:24:52.132Z,45.12
2023-04-09T12:28:56.049Z,45.36
2023-04-09T12:32:59.695Z,46.13
2023-04-09T12:37:02.305Z,45.33
2023-04-09T12:41:05.057Z,44.95
2023-04-09T12:45:11.216Z,44.46
2023-04-09T12:49:14.441Z,43.29
2023-04-09T12:53:16.997Z,43.66
2023-04-09T12:57:19.576Z,43.38
2023-04-09T13:01:23.547Z,45.76
2023-04-09T13:05:26.152Z,43.85
2023-04-09T13:09:28.729Z,43.93
2023-04-09T13:13:31.500Z,43.96
2023-04-09T13:17:35.458Z,45.18
2023-04-09T13:21:38.141Z,44.29
2023-04-09T13:25:40.660Z,43.95
2023-04-09T13:29:43.234Z,43.13
2023-04-09T13:33:47.146Z,44.19
2023-04-09T13:37:49.721Z,44.01
2023-04-09T13:41:52.276Z,42.57
2023-04-09T13:45:55.124Z,42.65
2023-04-09T13:49:58.991Z,43.19
2023-04-09T13:54:02.781Z,42.25
2023-04-09T13:58:07.126Z,42.07
2023-04-09T14:02:10.165Z,42.76
2023-04-09T14:06:14.431Z,41.46
2023-04-09T14:10:17.120Z,40.59
2023-04-09T14:14:19.905Z,40.84
2023-04-09T14:18:22.454Z,39.96
2023-04-09T14:22:28.154Z,40.64
2023-04-09T14:26:30.802Z,40.42
2023-04-09T14:30:33.326Z,39.96
2023-04-09T14:34:36.568Z,37.52
2023-04-09T14:38:40.282Z,37.47
2023-04-09T14:42:42.700Z,37.24
2023-04-09T14:46:45.276Z,36.66
2023-04-09T14:50:51.167Z,36.47
2023-04-09T14:54:55.013Z,36.40
2023-04-09T14:58:57.562Z,36.71
2023-04-09T15:03:00.493Z,36.53
2023-04-09T15:07:03.166Z,35.66
2023-04-09T15:11:08.590Z,35.70
2023-04-09T15:15:13.368Z,35.19
2023-04-09T15:19:15.970Z,34.80
2023-04-09T15:23:18.523Z,35.34
2023-04-09T15:27:22.406Z,34.97
2023-04-09T15:31:24.975Z,35.66
2023-04-09T15:35:29.390Z,33.81
2023-04-09T15:39:32.486Z,34.37
2023-04-09T15:43:36.515Z,33.88
2023-04-09T15:47:39.051Z,33.01
2023-04-09T15:51:41.590Z,34.09
2023-04-09T15:55:44.125Z,32.69
2023-04-09T15:59:48.317Z,32.91
2023-04-09T16:03:52.179Z,33.01
2023-04-09T16:07:55.991Z,32.28
2023-04-09T16:12:00.160Z,32.84
2023-04-09T16:16:04.313Z,33.58
2023-04-09T16:20:08.545Z,33.50
2023-04-09T16:24:12.525Z,32.91
2023-04-09T16:28:15.834Z,31.04
2023-04-09T16:32:19.738Z,31.84
2023-04-09T16:36:22.383Z,32.72
2023-04-09T16:40:25.099Z,33.23
2023-04-09T16:44:27.616Z,33.32
2023-04-09T16:48:32.315Z,31.97
2023-04-09T16:52:36.640Z,31.90
2023-04-09T16:56:39.224Z,34.69
2023-04-09T17:00:44.078Z,34.76
2023-04-09T17:04:50.281Z,35.01
2023-04-09T17:08:52.991Z,36.06
2023-04-09T17:12:55.678Z,36.62
2023-04-09T17:16:58.795Z,37.27
2023-04-09T17:21:02.784Z,37.82
2023-04-09T17:25:05.790Z,38.26
2023-04-09T17:29:08.323Z,38.88
2023-04-09T17:33:12.108Z,39.90
2023-04-09T17:37:16.181Z,41.28
2023-04-09T17:41:18.805Z,42.73
2023-04-09T17:45:21.335Z,45.64
2023-04-09T17:49:23.873Z,47.61
2023-04-09T17:53:27.705Z,49.90
2023-04-09T17:57:30.225Z,51.00
2023-04-09T18:01:32.874Z,51.23
2023-04-09T18:05:36.382Z,51.85
2023-04-09T18:09:40.626Z,52.93
2023-04-09T18:13:43.206Z,54.41
2023-04-09T18:17:45.788Z,56.24
2023-04-09T18:21:48.448Z,56.47
2023-04-09T18:25:52.317Z,55.89
2023-04-09T18:29:55.834Z,54.87
2023-04-09T18:33:58.358Z,57.60
2023-04-09T18:38:01.102Z,58.74
2023-04-09T18:42:05.258Z,59.60
2023-04-09T18:46:07.837Z,59.94
2023-04-09T18:50:12.309Z,60.53
2023-04-09T18:54:15.502Z,60.64
2023-04-09T18:58:19.340Z,61.77
2023-04-09T19:02:22.003Z,61.86
2023-04-09T19:06:27.140Z,61.83
2023-04-09T19:10:29.906Z,62.67
2023-04-09T19:14:33.768Z,64.10
2023-04-09T19:18:36.467Z,64.52
2023-04-09T19:22:39.008Z,64.85
2023-04-09T19:26:41.556Z,64.49
2023-04-09T19:30:45.426Z,64.20
2023-04-09T19:34:47.955Z,65.09
2023-04-09T19:38:51.789Z,65.38
2023-04-09T19:42:55.949Z,66.48
2023-04-09T19:46:59.818Z,67.95
2023-04-09T19:51:02.962Z,68.34
2023-04-09T19:55:06.481Z,68.89
2023-04-09T19:59:08.909Z,68.63
2023-04-09T20:03:13.026Z,67.87
2023-04-09T20:07:16.389Z,67.84
2023-04-09T20:11:19.002Z,68.54
2023-04-09T20:15:21.598Z,68.36
2023-04-09T20:19:25.549Z,68.62
2023-04-09T20:23:28.063Z,69.12
2023-04-09T20:27:31.276Z,69.16
2023-04-09T20:31:34.950Z,69.97
2023-04-09T20:35:39.080Z,69.70
2023-04-09T20:39:41.686Z,69.90
2023-04-09T20:43:44.244Z,69.96
2023-04-09T20:47:46.857Z,70.37
2023-04-09T20:51:51.823Z,71.28
2023-04-09T20:55:54.501Z,71.74
2023-04-09T20:59:57.215Z,71.23
